createdAt,value
2023-01-29T00:01:45.653Z,-0.50
2023-01-29T00:06:47.411Z,-1.56
2023-01-29T00:11:49.392Z,-2.10
2023-01-29T00:16:51.046Z,0.07
2023-01-29T00:21:52.827Z,-2.35
2023-01-29T00:26:54.597Z,-2.44
2023-01-29T00:31:56.320Z,-2.13
2023-01-29T00:37:04.839Z,-1.21
2023-01-29T00:42:25.331Z,-2.55
2023-01-29T00:47:36.591Z,-1.71
2023-01-29T00:52:40.882Z,-1.78
2023-01-29T00:57:42.641Z,-2.53
2023-01-29T01:03:02.892Z,-1.60
2023-01-29T01:08:24.869Z,-2.05
2023-01-29T01:13:26.578Z,-2.35
2023-01-29T01:18:31.562Z,-0.68
2023-01-29T01:23:33.676Z,-1.59
2023-01-29T01:28:35.854Z,-1.42
2023-01-29T01:33:38.310Z,-0.99
2023-01-29T01:38:44.682Z,-1.62
2023-01-29T01:43:50.923Z,-1.68
2023-01-29T01:49:01.571Z,-2.89
2023-01-29T01:54:19.994Z,-1.51
2023-01-29T01:59:22.997Z,-1.65
2023-01-29T02:04:45.151Z,-2.60
2023-01-29T02:10:03.929Z,-2.10
2023-01-29T02:15:06.789Z,-1.01
2023-01-29T02:20:24.431Z,-1.95
2023-01-29T02:26:00.157Z,-1.89
2023-01-29T02:31:11.103Z,-2.99
2023-01-29T02:36:41.629Z,-1.45
2023-01-29T02:42:13.496Z,-2.46
2023-01-29T02:47:23.127Z,-1.70
2023-01-29T02:52:44.721Z,-1.24
2023-01-29T02:57:49.069Z,-2.11
2023-01-29T03:03:16.610Z,-0.95
2023-01-29T03:08:36.781Z,-0.51
2023-01-29T03:13:56.195Z,-0.52
2023-01-29T03:19:06.184Z,-1.20
2023-01-29T03:24:29.890Z,-1.23
2023-01-29T03:29:53.769Z,-1.08
2023-01-29T03:35:02.735Z,-0.06
2023-01-29T03:40:07.059Z,-1.88
2023-01-29T03:45:24.739Z,-2.38
2023-01-29T03:50:26.365Z,-1.53
2023-01-29T03:55:34.614Z,-1.60
2023-01-29T04:00:41.837Z,-1.50
2023-01-29T04:05:58.707Z,-1.32
2023-01-29T04:11:06.074Z,-0.85
2023-01-29T04:16:13.265Z,-1.43
2023-01-29T04:21:16.258Z,-1.47
2023-01-29T04:26:53.531Z,-2.08
2023-01-29T04:32:03.983Z,-2.26
2023-01-29T04:37:19.323Z,-2.66
2023-01-29T04:42:32.486Z,-2.68
2023-01-29T04:47:44.480Z,-3.23
2023-01-29T04:53:12.078Z,-3.22
2023-01-29T04:58:22.797Z,-3.31
2023-01-29T05:03:27.354Z,-2.45
2023-01-29T05:08:31.384Z,-2.62
2023-01-29T05:13:39.259Z,-2.05
2023-01-29T05:18:41.537Z,-2.52
2023-01-29T05:23:53.217Z,-2.27
2023-01-29T05:28:56.222Z,-1.20
2023-01-29T05:33:58.262Z,-2.02
2023-01-29T05:38:59.920Z,-0.35
2023-01-29T05:44:01.651Z,-2.29
2023-01-29T05:49:03.985Z,-1.07
2023-01-29T05:54:06.315Z,-2.33
2023-01-29T05:59:08.843Z,-1.97
2023-01-29T06:04:10.622Z,-2.39
2023-01-29T06:09:12.376Z,-2.48
2023-01-29T06:14:14.143Z,-3.27
2023-01-29T06:19:15.830Z,-2.78
2023-01-29T06:24:17.653Z,-2.95
2023-01-29T06:29:19.404Z,-3.30
2023-01-29T06:34:21.162Z,-2.84
2023-01-29T06:39:22.887Z,-2.82
2023-01-29T06:44:24.578Z,-2.65
2023-01-29T06:49:26.311Z,-1.87
2023-01-29T06:54:27.918Z,-2.27
2023-01-29T06:59:29.591Z,-3.53
2023-01-29T07:04:31.246Z,-3.76
2023-01-29T07:09:33.032Z,-3.31
2023-01-29T07:14:34.725Z,-3.19
2023-01-29T07:19:36.328Z,-2.53
2023-01-29T07:24:38.035Z,-3.22
2023-01-29T07:29:39.824Z,-2.73
2023-01-29T07:34:41.500Z,-2.99
2023-01-29T07:39:43.449Z,-3.10
2023-01-29T07:44:45.056Z,-2.77
2023-01-29T07:49:46.753Z,-3.22
2023-01-29T07:54:48.416Z,-3.17
2023-01-29T07:59:50.102Z,-3.07
2023-01-29T08:04:51.835Z,-2.73
2023-01-29T08:09:53.552Z,-3.01
2023-01-29T08:14:55.209Z,-2.36
2023-01-29T08:19:56.923Z,-3.43
2023-01-29T08:25:06.321Z,-3.42
2023-01-29T08:30:11.192Z,-2.11
2023-01-29T08:35:12.888Z,-2.86
2023-01-29T08:40:14.729Z,-2.70
2023-01-29T08:45:17.046Z,-2.59
2023-01-29T11:06:30.075Z,-0.64
2023-01-29T11:11:31.603Z,-0.09
2023-01-29T11:16:45.657Z,-0.04
2023-01-29T11:21:52.182Z,-0.22
2023-01-29T11:26:59.485Z,-1.96
2023-01-29T11:32:35.974Z,-1.09
2023-01-29T11:37:40.008Z,0.56
2023-01-29T11:42:41.771Z,-0.27
2023-01-29T11:47:50.581Z,-0.30
2023-01-29T11:52:52.899Z,-0.37
2023-01-29T11:58:01.828Z,-0.58
2023-01-29T12:03:13.569Z,0.13
2023-01-29T12:08:18.350Z,0.78
2023-01-29T12:13:27.178Z,-1.09
2023-01-29T12:18:55.056Z,0.06
2023-01-29T12:24:11.803Z,-1.41
2023-01-29T12:29:56.453Z,0.59
2023-01-29T12:35:03.424Z,0.01
2023-01-29T12:40:27.328Z,0.39
2023-01-29T12:45:30.826Z,-0.39
2023-01-29T12:50:35.295Z,-0.49
2023-01-29T12:55:39.709Z,0.35
2023-01-29T13:00:45.886Z,0.41
2023-01-29T13:05:56.345Z,-0.49
2023-01-29T13:11:02.604Z,0.56
2023-01-29T13:16:10.216Z,1.18
2023-01-29T13:21:16.740Z,0.86
2023-01-29T13:26:20.030Z,0.47
2023-01-29T13:31:30.212Z,0.57
2023-01-29T13:36:32.319Z,0.62
2023-01-29T13:41:41.703Z,0.76
2023-01-29T13:46:50.041Z,1.04
2023-01-29T13:51:51.917Z,0.67
2023-01-29T13:56:56.301Z,1.13
2023-01-29T14:02:03.867Z,0.64
2023-01-29T14:07:43.483Z,0.56
2023-01-29T14:12:45.699Z,1.37
2023-01-29T14:17:59.834Z,1.62
2023-01-29T14:23:04.177Z,0.66
2023-01-29T14:28:16.043Z,-0.29
2023-01-29T14:33:38.095Z,1.63
2023-01-29T14:38:46.371Z,1.55
2023-01-29T14:43:48.024Z,1.42
2023-01-29T14:48:49.772Z,0.57
2023-01-29T14:54:20.913Z,0.52
2023-01-29T14:59:29.885Z,1.10
2023-01-29T15:04:50.661Z,0.93
2023-01-29T15:10:22.256Z,0.27
2023-01-29T15:15:24.872Z,0.25
2023-01-29T15:20:32.253Z,0.40
2023-01-29T15:25:49.743Z,0.74
2023-01-29T15:30:56.171Z,0.81
2023-01-29T15:36:07.661Z,0.91
2023-01-29T15:41:20.603Z,0.31
2023-01-29T15:46:29.699Z,-0.37
2023-01-29T15:51:31.680Z,0.80
2023-01-29T15:56:38.768Z,0.72
2023-01-29T16:01:40.380Z,0.17
2023-01-29T16:06:43.776Z,0.10
2023-01-29T16:11:47.195Z,0.09
2023-01-29T16:16:49.228Z,-0.10
2023-01-29T16:21:58.921Z,0.46
2023-01-29T16:27:08.358Z,-0.17
2023-01-29T16:32:13.819Z,0.24
2023-01-29T16:37:23.231Z,-0.27
2023-01-29T16:42:31.554Z,0.02
2023-01-29T16:47:41.876Z,-1.30
2023-01-29T16:53:12.574Z,-1.22
2023-01-29T16:58:24.566Z,-1.39
2023-01-29T17:03:28.732Z,0.02
2023-01-29T17:08:33.929Z,-0.21
2023-01-29T17:13:42.782Z,0.14
2023-01-29T17:18:44.394Z,-0.41
2023-01-29T17:23:46.050Z,-0.33
2023-01-29T17:28:50.276Z,-0.50
2023-01-29T17:33:51.907Z,-0.82
2023-01-29T17:38:53.527Z,-0.85
2023-01-29T17:43:55.179Z,-0.76
2023-01-29T17:48:56.824Z,-0.89
2023-01-29T17:53:58.641Z,-1.04
2023-01-29T17:59:00.955Z,-0.61
2023-01-29T18:04:02.590Z,-0.88
2023-01-29T18:09:04.672Z,-0.76
2023-01-29T18:14:13.918Z,-0.52
2023-01-29T18:19:27.635Z,-0.25
2023-01-29T18:24:30.057Z,-0.78
2023-01-29T18:29:31.761Z,-0.70
2023-01-29T18:34:33.453Z,-1.00
2023-01-29T18:39:35.255Z,-0.88
2023-01-29T18:44:36.929Z,-1.10
2023-01-29T18:49:39.269Z,-1.01
2023-01-29T18:54:40.897Z,-0.96
2023-01-29T18:59:42.734Z,-1.40
2023-01-29T19:04:46.907Z,-1.48
2023-01-29T19:09:50.343Z,-1.18
2023-01-29T19:14:51.939Z,-0.55
2023-01-29T19:19:53.624Z,-0.71
2023-01-29T19:24:55.314Z,-1.34
2023-01-29T19:30:00.380Z,-0.94
2023-01-29T19:35:02.175Z,-1.66
2023-01-29T19:40:04.247Z,-0.80
2023-01-29T19:45:06.431Z,-0.99
2023-01-29T19:50:12.107Z,-0.96
2023-01-29T19:55:13.806Z,-0.83
2023-01-29T20:00:17.507Z,-1.22
2023-01-29T20:05:20.401Z,-0.86
2023-01-29T20:10:22.536Z,-1.45
2023-01-29T20:15:24.201Z,-0.46
2023-01-29T20:20:29.857Z,-1.87
2023-01-29T20:25:35.663Z,-1.43
2023-01-29T20:30:37.312Z,-1.67
2023-01-29T20:35:39.252Z,-1.75
2023-01-29T20:40:40.828Z,-1.94
2023-01-29T20:45:42.659Z,-2.09
2023-01-29T20:50:44.576Z,-1.68
2023-01-29T20:55:46.249Z,-2.12
2023-01-29T21:00:47.893Z,-2.06
2023-01-29T21:05:50.343Z,-1.38
2023-01-29T21:10:52.758Z,-2.01
2023-01-29T21:15:54.386Z,-1.23
2023-01-29T21:20:56.190Z,-1.73
2023-01-29T21:26:02.631Z,-1.40
2023-01-29T21:31:07.138Z,-1.42
2023-01-29T21:36:10.173Z,-1.49
2023-01-29T21:41:13.040Z,-2.30
2023-01-29T21:46:16.172Z,-1.76
2023-01-29T21:51:18.951Z,-2.76
2023-01-29T21:56:20.731Z,-1.22
2023-01-29T22:01:36.797Z,-2.54
2023-01-29T22:06:39.905Z,-2.45
2023-01-29T22:11:41.784Z,-2.09
2023-01-29T22:16:43.652Z,-2.12
2023-01-29T22:21:45.419Z,-2.45
2023-01-29T22:26:48.655Z,-1.96
2023-01-29T22:31:51.177Z,-2.12
2023-01-29T22:36:52.811Z,-2.48
2023-01-29T22:41:54.532Z,-2.21
2023-01-29T22:46:56.161Z,-2.39
2023-01-29T22:52:10.124Z,-2.49
2023-01-29T22:57:14.160Z,-2.46
2023-01-29T23:02:15.787Z,-1.92
2023-01-29T23:07:17.392Z,-2.60
2023-01-29T23:12:18.997Z,-2.33
2023-01-29T23:17:20.596Z,-2.70
2023-01-29T23:22:22.236Z,-2.11
2023-01-29T23:27:24.121Z,-2.96
2023-01-29T23:32:25.716Z,-2.29
2023-01-29T23:37:27.473Z,-2.04
2023-01-29T23:42:29.147Z,-2.27
2023-01-29T23:47:30.712Z,-2.15
2023-01-29T23:52:32.413Z,-2.44
2023-01-29T23:57:34.005Z,-1.81
